Time;durP1;ratioP1;P1;durP2;ratioP2;P2;SDS_P1;SDS_P2;PMS_P1;PMS_P2;Temp;Humidity;BMP_temperature;BMP_pressure;BME280_temperature;BME280_humidity;BME280_pressure;Samples;Min_cycle;Max_cycle;Signal;HPM_P1;HPM_P2
2024/02/15 00:01:42;;;;;;;;;;;128.90;2252.80;;;;;;4957645;29;19945;-77
2024/02/15 00:04:07;;;;;;;;;;;128.60;2252.80;;;;;;4954527;29;20384;-76
2024/02/15 00:06:33;;;;;;;;;;;128.70;2252.80;;;;;;4949383;28;19910;-75
2024/02/15 00:08:58;;;;;;;;;;;128.70;2252.80;;;;;;4956579;28;19910;-83
2024/02/15 00:11:24;;;;;;;;;;;128.80;2252.80;;;;;;4956179;28;20411;-78
2024/02/15 00:13:50;;;;;;;;;;;153.60;2252.80;;;;;;4957478;29;20005;-78
2024/02/15 00:16:15;;;;;;;;;;;153.60;2252.80;;;;;;4956215;29;19973;-80
2024/02/15 00:18:41;;;;;;;;;;;128.90;2252.80;;;;;;4957420;28;19993;-75
2024/02/15 00:21:06;;;;;;;;;;;128.90;2252.80;;;;;;4955751;28;19970;-77
2024/02/15 00:23:32;;;;;;;;;;;128.60;2252.80;;;;;;4955664;28;20398;-79
2024/02/15 00:25:58;;;;;;;;;;;128.20;2252.80;;;;;;4957990;28;19910;-76
2024/02/15 00:28:24;;;;;;;;;;;128.00;2252.80;;;;;;4955926;28;19906;-76
2024/02/15 00:30:50;;;;;;;;;;;128.20;2252.80;;;;;;4956237;29;19911;-79
2024/02/15 00:33:16;;;;;;;;;;;128.30;2252.80;;;;;;4955592;29;19979;-77
2024/02/15 00:35:42;;;;;;;;;;;128.00;2252.80;;;;;;4947747;29;19926;-78
2024/02/15 00:38:07;;;;;;;;;;;128.10;2252.80;;;;;;4956903;29;19910;-75
2024/02/15 00:40:33;;;;;;;;;;;128.00;2252.80;;;;;;4955645;29;19910;-76
2024/02/15 00:42:59;;;;;;;;;;;128.10;2252.80;;;;;;4955412;29;19925;-75
2024/02/15 00:45:24;;;;;;;;;;;103.30;2227.20;;;;;;4939812;29;19914;-77
2024/02/15 00:47:50;;;;;;;;;;;128.00;2252.80;;;;;;4956132;28;20020;-82
2024/02/15 00:50:16;;;;;;;;;;;103.30;2227.20;;;;;;4956594;28;19915;-76
2024/02/15 00:52:41;;;;;;;;;;;103.00;2227.20;;;;;;4940359;29;20356;-76
2024/02/15 00:55:07;;;;;;;;;;;102.70;2227.20;;;;;;4956943;29;19974;-75
2024/02/15 00:57:33;;;;;;;;;;;102.70;2227.20;;;;;;4956291;28;19911;-79
2024/02/15 00:59:59;;;;;;;;;;;102.70;2227.20;;;;;;4956031;28;19906;-76
2024/02/15 01:02:25;;;;;;;;;;;102.80;2227.20;;;;;;4956975;29;19915;-77
2024/02/15 01:04:53;;;;;;;;;;;102.90;2227.20;;;;;;4956207;28;19997;-78
2024/02/15 01:07:19;;;;;;;;;;;103.10;2227.20;;;;;;4955710;28;19913;-77
2024/02/15 01:09:45;;;;;;;;;;;102.80;2227.20;;;;;;4955980;28;20026;-77
2024/02/15 01:12:10;;;;;;;;;;;103.10;2227.20;;;;;;4955867;28;19914;-75
2024/02/15 01:14:36;;;;;;;;;;;103.30;2227.20;;;;;;4955452;28;19906;-81
2024/02/15 01:17:02;;;;;;;;;;;103.30;2227.20;;;;;;4956115;28;19913;-74
2024/02/15 01:19:28;;;;;;;;;;;128.10;2252.80;;;;;;4955514;28;19958;-75
2024/02/15 01:21:53;;;;;;;;;;;128.20;2252.80;;;;;;4955318;29;19950;-76
2024/02/15 01:24:19;;;;;;;;;;;128.20;2252.80;;;;;;4955967;28;20296;-81
2024/02/15 01:26:44;;;;;;;;;;;128.30;2252.80;;;;;;4955499;29;19911;-81
2024/02/15 01:29:12;;;;;;;;;;;128.40;2252.80;;;;;;4956805;28;19906;-83
2024/02/15 01:31:38;;;;;;;;;;;128.50;2252.80;;;;;;4955853;28;20416;-81
2024/02/15 01:34:04;;;;;;;;;;;128.50;2252.80;;;;;;4956751;29;19907;-75
2024/02/15 01:36:30;;;;;;;;;;;128.50;2252.80;;;;;;4956587;29;19961;-74
2024/02/15 01:38:56;;;;;;;;;;;128.50;2252.80;;;;;;4956790;29;19976;-80
2024/02/15 01:41:22;;;;;;;;;;;128.50;2252.80;;;;;;4955169;28;20360;-75
2024/02/15 01:43:49;;;;;;;;;;;128.60;2252.80;;;;;;4951120;29;20287;-75
2024/02/15 01:46:15;;;;;;;;;;;128.60;2252.80;;;;;;4954648;28;19917;-74
2024/02/15 01:48:41;;;;;;;;;;;128.70;2252.80;;;;;;4955489;28;19910;-79
2024/02/15 01:51:08;;;;;;;;;;;128.60;2252.80;;;;;;4955031;29;19911;-76
2024/02/15 01:53:34;;;;;;;;;;;128.20;2252.80;;;;;;4956388;28;19906;-76
2024/02/15 01:56:00;;;;;;;;;;;103.30;2227.20;;;;;;4954936;29;20421;-75
2024/02/15 01:58:26;;;;;;;;;;;103.30;2227.20;;;;;;4951669;29;20315;-76
2024/02/15 02:00:53;;;;;;;;;;;103.30;2227.20;;;;;;4956412;28;19910;-78
2024/02/15 02:03:20;;;;;;;;;;;103.30;2227.20;;;;;;4938518;29;19914;-75
2024/02/15 02:05:47;;;;;;;;;;;103.30;2227.20;;;;;;4954585;28;19910;-75
2024/02/15 02:08:12;;;;;;;;;;;128.50;2252.80;;;;;;4956402;29;19997;-76
2024/02/15 02:10:42;;;;;;;;;;;103.10;2227.20;;;;;;4956319;29;19951;-81
2024/02/15 02:13:08;;;;;;;;;;;102.70;2227.20;;;;;;4956162;29;20393;-77
2024/02/15 02:15:34;;;;;;;;;;;102.50;2227.20;;;;;;4954641;28;19906;-77
2024/02/15 02:18:06;;;;;;;;;;;102.70;2227.20;;;;;;4955402;28;19917;-79
2024/02/15 02:20:32;;;;;;;;;;;77.60;2227.20;;;;;;4955585;29;19922;-84
2024/02/15 02:23:07;;;;;;;;;;;102.40;2227.20;;;;;;4935833;29;20397;-83
2024/02/15 02:25:34;;;;;;;;;;;77.70;2227.20;;;;;;4951648;29;19953;-82
2024/02/15 02:28:00;;;;;;;;;;;77.70;2227.20;;;;;;4955088;29;19906;-80
2024/02/15 02:30:29;;;;;;;;;;;77.70;2227.20;;;;;;4954517;28;20403;-76
2024/02/15 02:32:58;;;;;;;;;;;77.60;2227.20;;;;;;4954804;29;19953;-76
2024/02/15 02:35:24;;;;;;;;;;;77.50;2227.20;;;;;;4954509;28;19956;-77
2024/02/15 02:37:50;;;;;;;;;;;77.70;2227.20;;;;;;4956211;29;19938;-75
2024/02/15 02:40:16;;;;;;;;;;;77.50;2227.20;;;;;;4954289;28;20272;-76
2024/02/15 02:42:59;;;;;;;;;;;77.20;2227.20;;;;;;4954196;29;19914;-76
2024/02/15 02:45:25;;;;;;;;;;;77.00;2227.20;;;;;;4954114;28;19982;-75
2024/02/15 02:47:54;;;;;;;;;;;77.00;2227.20;;;;;;4954021;28;20300;-76
2024/02/15 02:50:20;;;;;;;;;;;77.30;2227.20;;;;;;4941790;28;20342;-77
2024/02/15 02:52:48;;;;;;;;;;;102.40;2227.20;;;;;;4955818;28;19917;-75
2024/02/15 02:55:14;;;;;;;;;;;77.40;2227.20;;;;;;4958202;29;19913;-76
2024/02/15 02:57:39;;;;;;;;;;;77.20;2227.20;;;;;;4959290;29;19910;-76
2024/02/15 03:00:12;;;;;;;;;;;76.90;2227.20;;;;;;4950273;28;19910;-73
2024/02/15 03:02:38;;;;;;;;;;;76.80;2227.20;;;;;;4958642;28;19915;-75
2024/02/15 03:05:05;;;;;;;;;;;76.90;2227.20;;;;;;4959213;29;20048;-75
2024/02/15 03:07:34;;;;;;;;;;;76.90;2227.20;;;;;;4957870;28;19913;-75
2024/02/15 03:10:00;;;;;;;;;;;76.90;2227.20;;;;;;4957633;28;19906;-75
2024/02/15 03:12:26;;;;;;;;;;;77.00;2227.20;;;;;;4957975;28;19910;-75
2024/02/15 03:14:52;;;;;;;;;;;76.90;2227.20;;;;;;4957832;28;20349;-75
2024/02/15 03:17:17;;;;;;;;;;;77.00;2227.20;;;;;;4957748;28;19906;-75
2024/02/15 03:19:43;;;;;;;;;;;77.20;2227.20;;;;;;4957256;28;19925;-76
2024/02/15 03:22:09;;;;;;;;;;;77.40;2227.20;;;;;;4958630;29;20349;-75
2024/02/15 03:24:34;;;;;;;;;;;77.40;2227.20;;;;;;4967605;28;20276;-75
2024/02/15 03:27:00;;;;;;;;;;;77.40;2227.20;;;;;;4957395;28;19929;-75
2024/02/15 03:29:25;;;;;;;;;;;77.40;2227.20;;;;;;4957329;29;19906;-75
2024/02/15 03:31:53;;;;;;;;;;;77.40;2227.20;;;;;;4957191;29;19988;-75
2024/02/15 03:34:21;;;;;;;;;;;77.40;2227.20;;;;;;4957468;29;20345;-74
2024/02/15 03:36:51;;;;;;;;;;;77.70;2227.20;;;;;;4958380;29;20435;-75
2024/02/15 03:39:17;;;;;;;;;;;102.40;2227.20;;;;;;4957364;29;19914;-76
2024/02/15 03:41:45;;;;;;;;;;;102.50;2227.20;;;;;;4957282;28;19906;-75
2024/02/15 03:44:11;;;;;;;;;;;102.70;2227.20;;;;;;4957075;29;20288;-75
2024/02/15 03:46:37;;;;;;;;;;;102.80;2227.20;;;;;;4958067;28;19906;-76
2024/02/15 03:49:03;;;;;;;;;;;102.90;2227.20;;;;;;4956952;28;19914;-75
2024/02/15 03:51:28;;;;;;;;;;;103.00;2227.20;;;;;;4956948;28;19914;-75
2024/02/15 03:53:54;;;;;;;;;;;103.10;2227.20;;;;;;4957169;28;19907;-75
2024/02/15 03:56:23;;;;;;;;;;;103.00;2227.20;;;;;;4956858;29;19946;-74
2024/02/15 03:58:50;;;;;;;;;;;103.00;2227.20;;;;;;4958190;29;20479;-75
2024/02/15 04:01:16;;;;;;;;;;;102.90;2227.20;;;;;;4956781;29;19934;-75
2024/02/15 04:03:42;;;;;;;;;;;102.90;2227.20;;;;;;4957450;28;19914;-74
2024/02/15 04:06:07;;;;;;;;;;;102.90;2227.20;;;;;;4956695;28;20352;-74
2024/02/15 04:08:33;;;;;;;;;;;103.00;2227.20;;;;;;4956492;29;19997;-76
2024/02/15 04:10:59;;;;;;;;;;;103.00;2227.20;;;;;;4956036;29;19914;-75
2024/02/15 04:13:25;;;;;;;;;;;103.10;2227.20;;;;;;4957959;29;19906;-75
2024/02/15 04:15:52;;;;;;;;;;;103.20;2227.20;;;;;;4956249;29;20265;-75
2024/02/15 04:18:19;;;;;;;;;;;103.20;2227.20;;;;;;4956019;29;19914;-75
2024/02/15 04:20:46;;;;;;;;;;;103.30;2227.20;;;;;;4956512;28;19923;-75
2024/02/15 04:23:13;;;;;;;;;;;103.20;2227.20;;;;;;4956302;29;19915;-75
2024/02/15 04:25:38;;;;;;;;;;;102.90;2227.20;;;;;;4956292;28;19906;-75
2024/02/15 04:28:04;;;;;;;;;;;102.90;2227.20;;;;;;4956404;28;19929;-75
2024/02/15 04:30:30;;;;;;;;;;;102.70;2227.20;;;;;;4957615;29;19954;-75
2024/02/15 04:32:56;;;;;;;;;;;77.70;2227.20;;;;;;4957375;29;20268;-75
2024/02/15 04:35:22;;;;;;;;;;;77.30;2227.20;;;;;;4954930;29;19948;-74
2024/02/15 04:37:49;;;;;;;;;;;77.10;2227.20;;;;;;4940508;29;20339;-75
2024/02/15 04:40:14;;;;;;;;;;;77.10;2227.20;;;;;;4956115;29;19910;-74
2024/02/15 04:42:43;;;;;;;;;;;77.10;2227.20;;;;;;4957338;29;20009;-74
2024/02/15 04:45:10;;;;;;;;;;;77.10;2227.20;;;;;;4957189;29;20004;-75
2024/02/15 04:47:36;;;;;;;;;;;77.10;2227.20;;;;;;4955189;29;19906;-74
2024/02/15 04:50:02;;;;;;;;;;;77.20;2227.20;;;;;;4955874;28;19933;-76
2024/02/15 04:52:28;;;;;;;;;;;77.10;2227.20;;;;;;4955416;29;19906;-75
2024/02/15 04:54:54;;;;;;;;;;;77.30;2227.20;;;;;;4955958;28;19913;-74
2024/02/15 04:57:20;;;;;;;;;;;77.10;2227.20;;;;;;4957275;29;19906;-74
2024/02/15 04:59:48;;;;;;;;;;;77.00;2227.20;;;;;;4956665;29;19925;-74
2024/02/15 05:02:14;;;;;;;;;;;76.90;2227.20;;;;;;4958136;28;19911;-76
2024/02/15 05:04:42;;;;;;;;;;;76.90;2227.20;;;;;;4955478;28;19918;-77
2024/02/15 05:07:08;;;;;;;;;;;77.10;2227.20;;;;;;4955481;28;19906;-75
2024/02/15 05:09:34;;;;;;;;;;;77.00;2227.20;;;;;;4955658;29;19913;-75
2024/02/15 05:12:02;;;;;;;;;;;76.90;2227.20;;;;;;4966139;28;19910;-76
2024/02/15 05:14:28;;;;;;;;;;;76.80;2227.20;;;;;;4955813;28;19953;-75
2024/02/15 05:16:53;;;;;;;;;;;76.90;2227.20;;;;;;4955997;28;19906;-76
2024/02/15 05:19:19;;;;;;;;;;;77.10;2227.20;;;;;;4956525;28;19919;-75
2024/02/15 05:21:45;;;;;;;;;;;77.30;2227.20;;;;;;4963425;28;20447;-76
2024/02/15 05:24:17;;;;;;;;;;;77.30;2227.20;;;;;;4955884;28;19962;-76
2024/02/15 05:26:43;;;;;;;;;;;77.30;2227.20;;;;;;4956539;29;19913;-76
2024/02/15 05:29:11;;;;;;;;;;;77.30;2227.20;;;;;;4938988;29;19961;-76
2024/02/15 05:31:37;;;;;;;;;;;77.40;2227.20;;;;;;4966134;28;19917;-75
2024/02/15 05:34:04;;;;;;;;;;;77.40;2227.20;;;;;;4954937;28;20356;-75
2024/02/15 05:36:30;;;;;;;;;;;77.50;2227.20;;;;;;4956362;29;19906;-75
2024/02/15 05:38:57;;;;;;;;;;;77.40;2227.20;;;;;;4954880;28;19906;-74
2024/02/15 05:41:22;;;;;;;;;;;77.40;2227.20;;;;;;4963830;28;20292;-75
2024/02/15 05:43:48;;;;;;;;;;;77.30;2227.20;;;;;;4951394;28;19918;-75
2024/02/15 05:46:14;;;;;;;;;;;77.40;2227.20;;;;;;4947178;29;19942;-75
2024/02/15 05:48:40;;;;;;;;;;;77.50;2227.20;;;;;;4954571;28;19977;-75
2024/02/15 05:51:06;;;;;;;;;;;77.60;2227.20;;;;;;4956132;29;19914;-75
2024/02/15 05:53:35;;;;;;;;;;;77.50;2227.20;;;;;;4955043;28;19910;-75
2024/02/15 05:56:05;;;;;;;;;;;77.50;2227.20;;;;;;4953728;29;19934;-75
2024/02/15 05:58:32;;;;;;;;;;;77.60;2227.20;;;;;;4936148;29;19914;-74
2024/02/15 06:01:01;;;;;;;;;;;102.40;2227.20;;;;;;4954401;29;19999;-84
2024/02/15 06:03:31;;;;;;;;;;;102.50;2227.20;;;;;;4954686;28;19969;-78
2024/02/15 06:05:58;;;;;;;;;;;102.50;2227.20;;;;;;4955958;28;19917;-76
2024/02/15 06:08:27;;;;;;;;;;;102.40;2227.20;;;;;;4955970;29;19911;-83
2024/02/15 06:10:52;;;;;;;;;;;77.70;2227.20;;;;;;4954606;28;19910;-75
2024/02/15 06:13:19;;;;;;;;;;;77.60;2227.20;;;;;;4950067;29;19906;-75
2024/02/15 06:15:44;;;;;;;;;;;102.60;2227.20;;;;;;4953759;29;19957;-76
2024/02/15 06:18:14;;;;;;;;;;;102.60;2227.20;;;;;;4953610;29;19910;-77
2024/02/15 06:20:40;;;;;;;;;;;102.60;2227.20;;;;;;4955045;28;19969;-76
2024/02/15 06:23:07;;;;;;;;;;;102.50;2227.20;;;;;;4955672;29;20288;-75
2024/02/15 06:25:34;;;;;;;;;;;102.50;2227.20;;;;;;4955107;29;19938;-76
2024/02/15 06:28:02;;;;;;;;;;;102.60;2227.20;;;;;;4953574;28;19914;-75
2024/02/15 06:41:26;;;;;;;;;;;128.90;2252.80;;;;;;4954341;28;19917;-75
2024/02/15 06:43:51;;;;;;;;;;;153.80;2252.80;;;;;;4954606;28;19934;-74
2024/02/15 06:46:19;;;;;;;;;;;154.00;2252.80;;;;;;4949876;28;19914;-75
2024/02/15 06:48:44;;;;;;;;;;;154.20;2252.80;;;;;;4952909;28;19917;-75
2024/02/15 06:51:14;;;;;;;;;;;154.50;2252.80;;;;;;4950426;28;19915;-76
2024/02/15 06:53:40;;;;;;;;;;;154.50;2252.80;;;;;;4950700;28;20014;-73
2024/02/15 06:56:08;;;;;;;;;;;154.50;2252.80;;;;;;4958264;28;19992;-76
2024/02/15 06:58:34;;;;;;;;;;;154.50;2252.80;;;;;;4953698;28;19934;-80
2024/02/15 07:01:00;;;;;;;;;;;179.40;2252.80;;;;;;4954914;29;20383;-75
2024/02/15 07:03:29;;;;;;;;;;;179.70;2252.80;;;;;;4955110;29;19949;-79
2024/02/15 07:05:56;;;;;;;;;;;179.80;2252.80;;;;;;4956940;28;20013;-77
2024/02/15 07:08:23;;;;;;;;;;;179.90;2252.80;;;;;;4953811;28;19910;-74
2024/02/15 07:10:48;;;;;;;;;;;180.00;2252.80;;;;;;4953909;28;20387;-81
2024/02/15 07:13:14;;;;;;;;;;;204.80;2252.80;;;;;;4952415;28;19942;-77
2024/02/15 07:15:40;;;;;;;;;;;205.00;2252.80;;;;;;4954917;28;20365;-82
2024/02/15 07:18:06;;;;;;;;;;;205.10;2252.80;;;;;;4942375;29;19914;-80
2024/02/15 07:20:34;;;;;;;;;;;205.00;2252.80;;;;;;4953039;28;19923;-77
2024/02/15 07:23:00;;;;;;;;;;;205.10;2252.80;;;;;;4939699;28;19957;-79
2024/02/15 07:25:25;;;;;;;;;;;205.00;2252.80;;;;;;4943558;29;19949;-76
2024/02/15 07:27:52;;;;;;;;;;;204.80;2252.80;;;;;;4942869;29;20376;-77
2024/02/15 07:30:18;;;;;;;;;;;204.90;2252.80;;;;;;4952704;28;20369;-76
2024/02/15 07:32:44;;;;;;;;;;;205.00;2252.80;;;;;;4952196;28;19910;-74
2024/02/15 07:35:10;;;;;;;;;;;205.20;2252.80;;;;;;4954121;29;20460;-80
2024/02/15 07:37:36;;;;;;;;;;;205.30;2252.80;;;;;;4952527;28;19925;-75
2024/02/15 07:40:03;;;;;;;;;;;205.20;2252.80;;;;;;4955027;28;20284;-76
2024/02/15 07:42:29;;;;;;;;;;;205.20;2252.80;;;;;;4954278;29;19915;-79
2024/02/15 07:44:55;;;;;;;;;;;205.40;2252.80;;;;;;4957787;28;20309;-76
2024/02/15 07:47:24;;;;;;;;;;;205.60;2252.80;;;;;;4957225;28;20005;-75
2024/02/15 07:49:50;;;;;;;;;;;205.70;2252.80;;;;;;4957463;28;19914;-75
2024/02/15 07:52:15;;;;;;;;;;;205.70;2252.80;;;;;;4957189;28;20380;-75
2024/02/15 07:54:41;;;;;;;;;;;205.60;2252.80;;;;;;4957299;28;19917;-77
2024/02/15 07:57:07;;;;;;;;;;;205.60;2252.80;;;;;;4945953;29;19910;-76
2024/02/15 07:59:32;;;;;;;;;;;205.70;2252.80;;;;;;4949225;29;20332;-76
2024/02/15 08:01:58;;;;;;;;;;;230.40;2252.80;;;;;;4944276;29;19911;-80
2024/02/15 08:04:24;;;;;;;;;;;230.60;2252.80;;;;;;4956130;28;19969;-74
2024/02/15 08:06:53;;;;;;;;;;;230.80;2252.80;;;;;;4942565;29;19918;-74
2024/02/15 08:09:21;;;;;;;;;;;230.90;2252.80;;;;;;4942884;29;19938;-80
2024/02/15 08:11:47;;;;;;;;;;;230.90;2252.80;;;;;;4958107;28;20001;-82
2024/02/15 08:14:13;;;;;;;;;;;231.10;2252.80;;;;;;4957795;29;19985;-74
2024/02/15 08:16:40;;;;;;;;;;;231.20;2252.80;;;;;;4940273;29;19957;-78
2024/02/15 08:19:06;;;;;;;;;;;231.20;2252.80;;;;;;4955528;29;19919;-75
2024/02/15 08:21:33;;;;;;;;;;;231.10;2252.80;;;;;;4957014;28;19914;-74
2024/02/15 08:24:05;;;;;;;;;;;231.10;2252.80;;;;;;4956241;29;19915;-78
2024/02/15 08:26:43;;;;;;;;;;;231.20;2252.80;;;;;;4939705;29;20399;-77
2024/02/15 08:29:09;;;;;;;;;;;231.10;2252.80;;;;;;4957128;28;19950;-76
2024/02/15 08:31:35;;;;;;;;;;;231.20;2252.80;;;;;;4956903;29;19965;-75
2024/02/15 08:34:01;;;;;;;;;;;231.00;2252.80;;;;;;4956721;29;21019;-75
2024/02/15 08:36:27;;;;;;;;;;;231.20;2252.80;;;;;;4956810;29;19912;-74
2024/02/15 08:38:53;;;;;;;;;;;256.10;2252.80;;;;;;4956911;28;19906;-75
2024/02/15 08:41:20;;;;;;;;;;;256.20;2252.80;;;;;;4955693;28;19910;-73
2024/02/15 08:43:48;;;;;;;;;;;256.30;2252.80;;;;;;4958856;28;19922;-73
2024/02/15 08:46:14;;;;;;;;;;;256.40;2252.80;;;;;;4956893;28;19915;-79
2024/02/15 08:48:40;;;;;;;;;;;256.60;2252.80;;;;;;4955775;28;19979;-77
2024/02/15 08:51:08;;;;;;;;;;;256.80;2252.80;;;;;;4955203;28;19982;-77
2024/02/15 08:53:37;;;;;;;;;;;281.60;2278.40;;;;;;4957216;29;19993;-73
2024/02/15 08:56:03;;;;;;;;;;;281.80;2278.40;;;;;;4952217;29;19910;-78
2024/02/15 08:58:30;;;;;;;;;;;282.00;2278.40;;;;;;4954780;29;19906;-76
2024/02/15 09:00:58;;;;;;;;;;;282.00;2278.40;;;;;;4947779;29;19907;-76
2024/02/15 09:03:24;;;;;;;;;;;282.00;2278.40;;;;;;4954535;29;19914;-79
2024/02/15 09:05:50;;;;;;;;;;;282.00;2278.40;;;;;;4951474;28;19918;-77
2024/02/15 09:08:20;;;;;;;;;;;282.10;2278.40;;;;;;4951114;28;20014;-76
2024/02/15 09:10:46;;;;;;;;;;;282.10;2278.40;;;;;;4955173;29;20061;-77
2024/02/15 09:13:12;;;;;;;;;;;282.00;2278.40;;;;;;4956079;29;19972;-76
2024/02/15 09:15:38;;;;;;;;;;;282.10;2150.40;;;;;;4954575;28;20400;-78
2024/02/15 09:18:05;;;;;;;;;;;282.20;2150.40;;;;;;4952544;29;19918;-76
2024/02/15 09:20:31;;;;;;;;;;;282.10;2278.40;;;;;;4954014;28;20368;-80
2024/02/15 09:22:57;;;;;;;;;;;282.30;2099.20;;;;;;4956727;29;19917;-78
2024/02/15 09:25:23;;;;;;;;;;;282.50;2099.20;;;;;;4955827;29;19914;-79
2024/02/15 09:27:49;;;;;;;;;;;307.30;2099.20;;;;;;4955538;29;20253;-78
2024/02/15 09:30:15;;;;;;;;;;;307.30;2073.60;;;;;;4954167;29;19932;-79
2024/02/15 09:32:41;;;;;;;;;;;307.60;2124.80;;;;;;4955060;29;19917;-79
2024/02/15 09:35:08;;;;;;;;;;;307.70;2048.00;;;;;;4955595;29;19911;-78
2024/02/15 09:37:34;;;;;;;;;;;307.60;2073.60;;;;;;4955919;29;20407;-78
2024/02/15 09:40:05;;;;;;;;;;;307.70;2073.60;;;;;;4955846;29;19910;-76
2024/02/15 09:42:34;;;;;;;;;;;307.70;2073.60;;;;;;4955924;29;20001;-78
2024/02/15 09:45:02;;;;;;;;;;;308.00;2150.40;;;;;;4955675;29;20352;-76
2024/02/15 09:47:33;;;;;;;;;;;308.00;2124.80;;;;;;4955939;29;19910;-82
2024/02/15 09:49:59;;;;;;;;;;;307.90;2176.00;;;;;;4955766;29;19937;-81
2024/02/15 09:52:25;;;;;;;;;;;307.80;2099.20;;;;;;4955994;29;19953;-77
2024/02/15 09:54:52;;;;;;;;;;;308.10;2176.00;;;;;;4955108;29;19930;-76
2024/02/15 09:57:19;;;;;;;;;;;333.00;2073.60;;;;;;4955753;29;19906;-75
2024/02/15 09:59:44;;;;;;;;;;;333.30;2048.00;;;;;;4948387;29;19910;-79
2024/02/15 10:02:10;;;;;;;;;;;333.50;2022.40;;;;;;4956708;28;19957;-78
2024/02/15 10:04:42;;;;;;;;;;;358.40;1920.00;;;;;;4955346;29;19919;-77
2024/02/15 10:07:08;;;;;;;;;;;358.50;1894.40;;;;;;4951422;28;19911;-77
2024/02/15 10:09:36;;;;;;;;;;;359.00;1868.80;;;;;;4955452;28;19964;-77
2024/02/15 10:12:03;;;;;;;;;;;359.00;1868.80;;;;;;4953886;28;19910;-75
2024/02/15 10:14:29;;;;;;;;;;;359.30;1843.20;;;;;;4945459;29;19906;-78
2024/02/15 10:16:55;;;;;;;;;;;384.30;2150.40;;;;;;4955654;29;19914;-76
2024/02/15 10:19:25;;;;;;;;;;;384.60;1740.80;;;;;;4955244;28;19918;-77
2024/02/15 10:21:52;;;;;;;;;;;384.10;1817.60;;;;;;4943418;29;19921;-78
2024/02/15 10:24:19;;;;;;;;;;;384.20;1792.00;;;;;;4954093;29;20353;-79
2024/02/15 10:26:47;;;;;;;;;;;384.70;1766.40;;;;;;4937626;29;19906;-78
2024/02/15 10:29:15;;;;;;;;;;;384.80;1740.80;;;;;;4953841;29;19910;-77
2024/02/15 10:31:51;;;;;;;;;;;409.60;1740.80;;;;;;4954974;28;20376;-80
2024/02/15 10:34:18;;;;;;;;;;;410.00;1689.60;;;;;;4953522;28;19910;-80
2024/02/15 10:36:45;;;;;;;;;;;410.10;1689.60;;;;;;4951928;28;20017;-80
2024/02/15 10:39:16;;;;;;;;;;;410.50;1638.40;;;;;;4954071;29;19914;-79
2024/02/15 10:41:46;;;;;;;;;;;435.30;1587.20;;;;;;4953505;29;19914;-75
2024/02/15 10:44:15;;;;;;;;;;;435.50;1561.60;;;;;;4942280;29;20353;-74
2024/02/15 10:46:41;;;;;;;;;;;435.40;1587.20;;;;;;4954547;28;19915;-74
2024/02/15 10:49:07;;;;;;;;;;;435.80;1536.00;;;;;;4939756;29;20277;-75
2024/02/15 10:51:34;;;;;;;;;;;435.80;1561.60;;;;;;4954950;28;19965;-73
2024/02/15 10:54:03;;;;;;;;;;;436.10;1536.00;;;;;;4954809;29;19911;-75
2024/02/15 10:56:34;;;;;;;;;;;436.10;1484.80;;;;;;4952107;29;19911;-74
2024/02/15 10:59:05;;;;;;;;;;;460.90;1484.80;;;;;;4961605;28;19933;-79
2024/02/15 11:01:32;;;;;;;;;;;461.10;1510.40;;;;;;4953486;28;19918;-75
2024/02/15 11:04:00;;;;;;;;;;;461.20;1484.80;;;;;;4953820;29;19918;-79
2024/02/15 11:06:30;;;;;;;;;;;461.40;1459.20;;;;;;4955071;28;19907;-77
2024/02/15 11:08:55;;;;;;;;;;;461.10;1484.80;;;;;;4953388;29;19906;-75
2024/02/15 11:11:22;;;;;;;;;;;461.60;1459.20;;;;;;4955266;29;19928;-77
2024/02/15 11:13:50;;;;;;;;;;;461.50;1459.20;;;;;;4944265;28;19911;-77
2024/02/15 11:16:34;;;;;;;;;;;461.20;1459.20;;;;;;4957343;28;19965;-79
2024/02/15 11:19:00;;;;;;;;;;;461.10;1484.80;;;;;;4956267;28;19917;-80
2024/02/15 11:21:45;;;;;;;;;;;461.10;1510.40;;;;;;4958270;29;19929;-79
2024/02/15 11:24:31;;;;;;;;;;;461.40;1510.40;;;;;;4951766;28;19918;-82
2024/02/15 11:27:03;;;;;;;;;;;461.10;1484.80;;;;;;4956567;29;19914;-78
2024/02/15 11:29:48;;;;;;;;;;;460.80;1510.40;;;;;;4950035;29;20254;-84
2024/02/15 11:32:33;;;;;;;;;;;460.80;1510.40;;;;;;4957332;28;19989;-75
2024/02/15 11:35:12;;;;;;;;;;;436.10;1459.20;;;;;;4946715;29;19934;-77
2024/02/15 11:37:58;;;;;;;;;;;436.00;1484.80;;;;;;4956488;28;19917;-78
2024/02/15 11:40:25;;;;;;;;;;;436.10;1484.80;;;;;;4955996;28;20276;-79
2024/02/15 11:43:00;;;;;;;;;;;435.90;1510.40;;;;;;4956811;29;19918;-78
2024/02/15 11:45:26;;;;;;;;;;;435.70;1510.40;;;;;;4956317;28;20262;-79
2024/02/15 11:47:55;;;;;;;;;;;460.90;1536.00;;;;;;4955387;29;20455;-76
2024/02/15 11:50:22;;;;;;;;;;;436.10;1484.80;;;;;;4955761;28;19921;-76
2024/02/15 11:52:48;;;;;;;;;;;435.60;1510.40;;;;;;4959068;28;19960;-76
2024/02/15 11:55:18;;;;;;;;;;;435.20;1561.60;;;;;;4955965;29;19918;-76
2024/02/15 11:58:28;;;;;;;;;;;435.50;1536.00;;;;;;4950496;29;19907;-78
2024/02/15 12:20:07;;;;;;;;;;;436.00;1484.80;;;;;;4956660;28;19930;-77
2024/02/15 12:22:40;;;;;;;;;;;460.80;1510.40;;;;;;4955245;29;19918;-78
2024/02/15 12:25:11;;;;;;;;;;;461.10;1536.00;;;;;;4957051;28;20372;-75
2024/02/15 12:27:40;;;;;;;;;;;460.90;1510.40;;;;;;4939821;29;19906;-76
2024/02/15 12:30:06;;;;;;;;;;;436.00;1510.40;;;;;;4956898;29;20452;-76
2024/02/15 12:32:32;;;;;;;;;;;435.90;1536.00;;;;;;4956879;28;19910;-78
2024/02/15 12:35:19;;;;;;;;;;;460.80;1510.40;;;;;;4946937;29;19917;-78
2024/02/15 12:37:45;;;;;;;;;;;460.80;1510.40;;;;;;4956983;29;20357;-79
2024/02/15 12:40:15;;;;;;;;;;;460.90;1510.40;;;;;;4955738;29;20423;-77
2024/02/15 12:42:43;;;;;;;;;;;460.90;1510.40;;;;;;4955115;29;19918;-79
2024/02/15 12:45:15;;;;;;;;;;;460.90;1510.40;;;;;;4954761;28;19911;-77
2024/02/15 12:47:41;;;;;;;;;;;436.10;1536.00;;;;;;4955173;28;19910;-81
2024/02/15 12:50:13;;;;;;;;;;;460.90;1536.00;;;;;;4955291;29;19986;-77
2024/02/15 12:52:39;;;;;;;;;;;460.90;1510.40;;;;;;4942130;29;19962;-75
2024/02/15 12:55:10;;;;;;;;;;;461.10;1510.40;;;;;;4955692;28;19911;-80
2024/02/15 12:57:35;;;;;;;;;;;461.00;1510.40;;;;;;4956075;28;19907;-76
2024/02/15 13:00:10;;;;;;;;;;;460.80;1536.00;;;;;;4956690;28;20001;-75
2024/02/15 13:02:38;;;;;;;;;;;436.10;1484.80;;;;;;4938981;29;19918;-75
2024/02/15 13:05:05;;;;;;;;;;;436.10;1484.80;;;;;;4951574;28;19919;-80
2024/02/15 13:07:30;;;;;;;;;;;436.10;1484.80;;;;;;4948239;28;19918;-77
2024/02/15 13:09:56;;;;;;;;;;;436.00;1510.40;;;;;;4954963;28;19918;-76
2024/02/15 13:12:23;;;;;;;;;;;436.10;1561.60;;;;;;4955124;28;19914;-80
2024/02/15 13:14:50;;;;;;;;;;;435.90;1561.60;;;;;;4955093;28;19911;-79
2024/02/15 13:17:16;;;;;;;;;;;435.90;1536.00;;;;;;4954040;28;20052;-76
2024/02/15 13:19:47;;;;;;;;;;;435.70;1561.60;;;;;;4942075;29;19997;-80
2024/02/15 13:22:12;;;;;;;;;;;435.50;1561.60;;;;;;4954657;28;19915;-78
2024/02/15 13:24:38;;;;;;;;;;;435.30;1561.60;;;;;;4955539;28;19933;-75
2024/02/15 13:27:04;;;;;;;;;;;435.20;1587.20;;;;;;4955059;28;20281;-74
2024/02/15 13:29:32;;;;;;;;;;;435.20;1612.80;;;;;;4953983;28;19957;-77
2024/02/15 13:31:57;;;;;;;;;;;435.20;1612.80;;;;;;4948810;28;19911;-75
2024/02/15 13:34:24;;;;;;;;;;;410.40;1638.40;;;;;;4947441;28;19917;-75
2024/02/15 13:36:49;;;;;;;;;;;410.20;1638.40;;;;;;4952326;28;19914;-76
2024/02/15 13:39:15;;;;;;;;;;;410.20;1638.40;;;;;;4954438;28;19910;-76
2024/02/15 13:41:40;;;;;;;;;;;410.20;1638.40;;;;;;4961730;28;19954;-78
2024/02/15 13:44:06;;;;;;;;;;;410.20;1664.00;;;;;;4944591;29;20287;-78
2024/02/15 13:46:32;;;;;;;;;;;410.00;1664.00;;;;;;4955891;29;20010;-76
2024/02/15 13:48:58;;;;;;;;;;;409.70;1689.60;;;;;;4954061;28;19962;-77
2024/02/15 13:51:24;;;;;;;;;;;409.70;1715.20;;;;;;4954975;28;19914;-75
2024/02/15 13:53:50;;;;;;;;;;;409.70;1689.60;;;;;;4952796;29;19938;-75
2024/02/15 13:56:16;;;;;;;;;;;409.60;1689.60;;;;;;4948011;29;20626;-78
2024/02/15 13:58:42;;;;;;;;;;;409.60;1715.20;;;;;;4938806;29;19991;-75
2024/02/15 14:01:07;;;;;;;;;;;409.60;1715.20;;;;;;4954055;28;20001;-75
2024/02/15 14:03:33;;;;;;;;;;;409.60;1715.20;;;;;;4942688;29;19914;-77
2024/02/15 14:05:59;;;;;;;;;;;384.90;1689.60;;;;;;4954810;28;19953;-77
2024/02/15 14:08:25;;;;;;;;;;;384.80;1715.20;;;;;;4953885;28;20391;-77
2024/02/15 14:10:51;;;;;;;;;;;384.70;1715.20;;;;;;4955687;28;19910;-76
2024/02/15 14:13:18;;;;;;;;;;;384.60;1740.80;;;;;;4955022;28;19911;-76
2024/02/15 14:15:43;;;;;;;;;;;384.40;1740.80;;;;;;4954048;29;19911;-80